createdAt,value
2022-09-18T00:00:56.798Z,99089.00
2022-09-18T00:01:56.885Z,99091.00
2022-09-18T00:02:56.898Z,99093.00
2022-09-18T00:03:56.827Z,99084.00
2022-09-18T00:04:56.833Z,99085.00
2022-09-18T00:05:56.861Z,99088.00
2022-09-18T00:06:57.035Z,99084.00
2022-09-18T00:07:56.905Z,99088.00
2022-09-18T00:08:56.917Z,99086.00
2022-09-18T00:09:56.921Z,99087.00
2022-09-18T00:10:56.935Z,99089.00
2022-09-18T00:11:56.977Z,99087.00
2022-09-18T00:12:56.987Z,99086.00
2022-09-18T00:13:57.023Z,99086.00
2022-09-18T00:14:57.041Z,99086.00
2022-09-18T00:15:57.117Z,99084.00
2022-09-18T00:16:57.059Z,99083.00
2022-09-18T00:17:57.052Z,99084.00
2022-09-18T00:18:57.070Z,99083.00
2022-09-18T00:19:57.152Z,99087.00
2022-09-18T00:20:57.109Z,99091.00
2022-09-18T00:21:57.367Z,99088.00
2022-09-18T00:22:57.292Z,99089.00
2022-09-18T00:23:57.200Z,99090.00
2022-09-18T00:24:57.218Z,99091.00
2022-09-18T00:25:57.243Z,99085.00
2022-09-18T00:26:57.511Z,99088.00
2022-09-18T00:27:57.282Z,99087.00
2022-09-18T00:28:57.289Z,99090.00
2022-09-18T00:29:57.300Z,99085.00
2022-09-18T00:30:57.361Z,99085.00
2022-09-18T00:31:57.342Z,99088.00
2022-09-18T00:32:57.326Z,99089.00
2022-09-18T00:33:57.319Z,99090.00
2022-09-18T00:34:57.321Z,99094.00
2022-09-18T00:35:57.346Z,99086.00
2022-09-18T00:36:57.395Z,99084.00
2022-09-18T00:37:57.375Z,99085.00
2022-09-18T00:38:57.527Z,99087.00
2022-09-18T00:39:57.430Z,99087.00
2022-09-18T00:40:57.403Z,99083.00
2022-09-18T00:41:57.443Z,99086.00
2022-09-18T00:42:57.423Z,99084.00
2022-09-18T00:43:57.449Z,99088.00
2022-09-18T00:44:57.469Z,99090.00
2022-09-18T00:45:57.502Z,99082.00
2022-09-18T00:46:57.647Z,99082.00
2022-09-18T00:47:57.524Z,99084.00
2022-09-18T00:48:57.700Z,99078.00
2022-09-18T00:49:57.519Z,99083.00
2022-09-18T00:50:57.542Z,99079.00
2022-09-18T00:51:57.561Z,99084.00
2022-09-18T00:52:57.566Z,99083.00
2022-09-18T00:53:57.591Z,99082.00
2022-09-18T00:54:57.713Z,99080.00
2022-09-18T00:55:57.616Z,99082.00
2022-09-18T00:56:57.646Z,99081.00
2022-09-18T00:57:57.650Z,99077.00
2022-09-18T00:58:57.672Z,99075.00
2022-09-18T00:59:57.679Z,99075.00
2022-09-18T01:00:57.780Z,99078.00
2022-09-18T01:01:57.774Z,99078.00
2022-09-18T01:02:57.694Z,99081.00
2022-09-18T01:03:57.716Z,99083.00
2022-09-18T01:04:57.740Z,99083.00
2022-09-18T01:05:57.772Z,99077.00
2022-09-18T01:06:57.798Z,99070.00
2022-09-18T01:07:57.792Z,99081.00
2022-09-18T01:08:57.796Z,99087.00
2022-09-18T01:09:57.821Z,99082.00
2022-09-18T01:10:57.859Z,99083.00
2022-09-18T01:11:57.859Z,99084.00
2022-09-18T01:12:57.890Z,99086.00
2022-09-18T01:13:57.905Z,99082.00
2022-09-18T01:14:57.921Z,99083.00
2022-09-18T01:15:57.968Z,99080.00
2022-09-18T01:16:57.948Z,99085.00
2022-09-18T01:17:57.975Z,99083.00
2022-09-18T01:18:57.994Z,99086.00
2022-09-18T01:19:58.016Z,99082.00
2022-09-18T01:20:58.055Z,99088.00
2022-09-18T01:21:58.081Z,99085.00
2022-09-18T01:22:58.058Z,99088.00
2022-09-18T01:23:58.074Z,99081.00
2022-09-18T01:24:58.101Z,99084.00
2022-09-18T01:25:58.114Z,99085.00
2022-09-18T01:26:58.139Z,99082.00
2022-09-18T01:27:58.151Z,99085.00
2022-09-18T01:28:58.167Z,99085.00
2022-09-18T01:29:58.194Z,99086.00
2022-09-18T01:30:58.268Z,99085.00
2022-09-18T01:31:58.240Z,99083.00
2022-09-18T01:32:58.250Z,99082.00
2022-09-18T01:33:58.272Z,99078.00
2022-09-18T01:34:58.261Z,99079.00
2022-09-18T01:35:58.277Z,99076.00
2022-09-18T01:36:58.306Z,99078.00
2022-09-18T01:37:58.329Z,99078.00
2022-09-18T01:38:58.358Z,99078.00
2022-09-18T01:39:58.481Z,99079.00
2022-09-18T01:40:58.415Z,99083.00
2022-09-18T01:41:58.433Z,99078.00
2022-09-18T01:42:58.579Z,99082.00
2022-09-18T01:43:58.487Z,99081.00
2022-09-18T01:44:58.517Z,99079.00
2022-09-18T01:45:58.537Z,99079.00
2022-09-18T01:46:58.643Z,99083.00
2022-09-18T01:47:58.567Z,99077.00
2022-09-18T01:48:58.549Z,99076.00
2022-09-18T01:49:58.577Z,99079.00
2022-09-18T01:50:58.581Z,99074.00
2022-09-18T01:51:58.606Z,99079.00
2022-09-18T01:52:58.637Z,99078.00
2022-09-18T01:53:58.810Z,99078.00
2022-09-18T01:54:58.650Z,99068.00
2022-09-18T01:55:58.679Z,99080.00
2022-09-18T01:56:58.699Z,99070.00
2022-09-18T01:57:58.735Z,99076.00
2022-09-18T01:58:58.865Z,99079.00
2022-09-18T01:59:58.759Z,99079.00
2022-09-18T02:00:58.800Z,99074.00
2022-09-18T02:01:58.927Z,99070.00
2022-09-18T02:02:58.906Z,99073.00
2022-09-18T02:03:58.839Z,99074.00
2022-09-18T02:04:58.850Z,99077.00
2022-09-18T02:05:58.885Z,99080.00
2022-09-18T02:06:58.900Z,99076.00
2022-09-18T02:07:58.924Z,99079.00
2022-09-18T02:08:59.023Z,99079.00
2022-09-18T02:09:58.937Z,99075.00
2022-09-18T02:10:58.943Z,99074.00
2022-09-18T02:11:58.959Z,99073.00
2022-09-18T02:12:59.004Z,99077.00
2022-09-18T02:13:59.027Z,99074.00
2022-09-18T02:14:59.159Z,99077.00
2022-09-18T02:15:59.123Z,99077.00
2022-09-18T02:16:59.070Z,99072.00
2022-09-18T02:17:59.100Z,99076.00
2022-09-18T02:18:59.115Z,99072.00
2022-09-18T02:19:59.134Z,99069.00
2022-09-18T02:20:59.153Z,99071.00
2022-09-18T02:21:59.183Z,99071.00
2022-09-18T02:22:59.214Z,99070.00
2022-09-18T02:23:59.282Z,99072.00
2022-09-18T02:24:59.239Z,99066.00
2022-09-18T02:25:59.257Z,99069.00
2022-09-18T02:26:59.296Z,99067.00
2022-09-18T02:27:59.323Z,99069.00
2022-09-18T02:28:59.352Z,99069.00
2022-09-18T02:29:59.378Z,99068.00
2022-09-18T02:30:59.576Z,99071.00
2022-09-18T02:31:59.392Z,99074.00
2022-09-18T02:32:59.437Z,99068.00
2022-09-18T02:33:59.392Z,99070.00
2022-09-18T02:34:59.406Z,99068.00
2022-09-18T02:35:59.437Z,99067.00
2022-09-18T02:36:59.463Z,99069.00
2022-09-18T02:37:59.500Z,99066.00
2022-09-18T02:38:59.585Z,99071.00
2022-09-18T02:39:59.637Z,99066.00
2022-09-18T02:40:59.553Z,99064.00
2022-09-18T02:41:59.567Z,99063.00
2022-09-18T02:42:59.602Z,99059.00
2022-09-18T02:43:59.636Z,99064.00
2022-09-18T02:44:59.644Z,99062.00
2022-09-18T02:45:59.663Z,99068.00
2022-09-18T02:46:59.794Z,99064.00
2022-09-18T02:47:59.703Z,99061.00
2022-09-18T02:48:59.740Z,99071.00
2022-09-18T02:49:59.712Z,99062.00
2022-09-18T02:50:59.741Z,99068.00
2022-09-18T02:51:59.766Z,99069.00
2022-09-18T02:52:59.773Z,99068.00
2022-09-18T02:53:59.877Z,99067.00
2022-09-18T02:54:59.829Z,99070.00
2022-09-18T02:55:59.854Z,99066.00
2022-09-18T02:56:59.865Z,99065.00
2022-09-18T02:57:59.862Z,99065.00
2022-09-18T02:58:59.894Z,99064.00
2022-09-18T02:59:59.919Z,99061.00
2022-09-18T03:00:59.927Z,99061.00
2022-09-18T03:02:00.054Z,99058.00
2022-09-18T03:03:00.157Z,99059.00
2022-09-18T03:03:59.984Z,99056.00
2022-09-18T03:04:59.972Z,99052.00
2022-09-18T03:05:59.983Z,99055.00
2022-09-18T03:07:00.005Z,99054.00
2022-09-18T03:08:00.017Z,99055.00
2022-09-18T03:09:00.114Z,99050.00
2022-09-18T03:10:00.073Z,99057.00
2022-09-18T03:11:00.081Z,99048.00
2022-09-18T03:12:00.100Z,99051.00
2022-09-18T03:13:00.122Z,99050.00
2022-09-18T03:14:00.130Z,99050.00
2022-09-18T03:15:00.156Z,99048.00
2022-09-18T03:16:00.256Z,99050.00
2022-09-18T03:17:00.193Z,99051.00
2022-09-18T03:18:00.238Z,99046.00
2022-09-18T03:19:00.376Z,99050.00
2022-09-18T03:20:00.306Z,99048.00
2022-09-18T03:21:00.294Z,99054.00
2022-09-18T03:22:00.298Z,99053.00
2022-09-18T03:23:00.316Z,99056.00
2022-09-18T03:24:00.431Z,99053.00
2022-09-18T03:25:00.342Z,99054.00
2022-09-18T03:26:00.384Z,99051.00
2022-09-18T03:27:00.369Z,99056.00
2022-09-18T03:28:00.349Z,99052.00
2022-09-18T03:29:00.360Z,99053.00
2022-09-18T03:30:00.389Z,99056.00
2022-09-18T03:31:00.525Z,99055.00
2022-09-18T03:32:00.428Z,99057.00
2022-09-18T03:33:00.444Z,99053.00
2022-09-18T03:34:00.474Z,99052.00
2022-09-18T03:35:00.610Z,99055.00
2022-09-18T03:36:00.522Z,99054.00
2022-09-18T03:37:00.565Z,99060.00
2022-09-18T03:38:00.536Z,99057.00
2022-09-18T03:39:00.624Z,99057.00
2022-09-18T03:40:00.663Z,99060.00
2022-09-18T03:41:00.559Z,99057.00
2022-09-18T03:42:00.582Z,99052.00
2022-09-18T03:43:00.619Z,99055.00
2022-09-18T03:44:00.616Z,99055.00
2022-09-18T03:45:00.635Z,99053.00
2022-09-18T03:46:00.652Z,99051.00
2022-09-18T03:47:00.744Z,99055.00
2022-09-18T03:48:00.705Z,99057.00
2022-09-18T03:49:00.727Z,99056.00
2022-09-18T03:50:00.756Z,99060.00
2022-09-18T03:51:00.902Z,99061.00
2022-09-18T03:52:00.768Z,99059.00
2022-09-18T03:53:00.793Z,99061.00
2022-09-18T03:54:00.839Z,99057.00
2022-09-18T03:55:00.823Z,99057.00
2022-09-18T03:56:00.854Z,99061.00
2022-09-18T03:57:00.875Z,99065.00
2022-09-18T03:58:00.864Z,99064.00
2022-09-18T03:59:00.889Z,99064.00
2022-09-18T04:00:00.915Z,99067.00
2022-09-18T04:01:00.943Z,99069.00
2022-09-18T04:02:01.049Z,99066.00
2022-09-18T04:03:01.012Z,99063.00
2022-09-18T04:04:00.991Z,99067.00
2022-09-18T04:05:01.002Z,99071.00
2022-09-18T04:06:01.239Z,99069.00
2022-09-18T04:07:01.172Z,99067.00
2022-09-18T04:08:01.078Z,99070.00
2022-09-18T04:09:01.129Z,99063.00
2022-09-18T04:10:01.084Z,99067.00
2022-09-18T04:11:01.106Z,99067.00
2022-09-18T04:12:01.141Z,99069.00
2022-09-18T04:13:01.128Z,99066.00
2022-09-18T04:14:01.140Z,99066.00
2022-09-18T04:15:01.167Z,99066.00
2022-09-18T04:16:01.234Z,99063.00
2022-09-18T04:17:01.223Z,99069.00
2022-09-18T04:18:01.258Z,99068.00
2022-09-18T04:19:01.272Z,99069.00
2022-09-18T04:20:01.270Z,99062.00
2022-09-18T04:21:01.301Z,99065.00
2022-09-18T04:22:01.336Z,99061.00
2022-09-18T04:23:01.426Z,99071.00
2022-09-18T04:24:01.428Z,99074.00
2022-09-18T04:25:01.378Z,99076.00
2022-09-18T04:26:01.335Z,99069.00
2022-09-18T04:27:01.372Z,99069.00
2022-09-18T04:28:01.396Z,99066.00
2022-09-18T04:29:01.420Z,99072.00
2022-09-18T04:30:01.443Z,99070.00
2022-09-18T04:31:01.514Z,99072.00
2022-09-18T04:32:01.506Z,99072.00
2022-09-18T04:33:01.527Z,99074.00
2022-09-18T04:34:01.555Z,99073.00
2022-09-18T04:35:01.586Z,99075.00
2022-09-18T04:36:01.598Z,99072.00
2022-09-18T04:37:01.629Z,99074.00
2022-09-18T04:38:01.631Z,99070.00
2022-09-18T04:39:01.874Z,99072.00
2022-09-18T04:40:01.736Z,99073.00
2022-09-18T04:41:01.713Z,99073.00
2022-09-18T04:42:01.734Z,99076.00
2022-09-18T04:43:01.748Z,99074.00
2022-09-18T04:44:01.771Z,99074.00
2022-09-18T04:45:01.774Z,99079.00
2022-09-18T04:46:01.789Z,99074.00
2022-09-18T04:47:01.896Z,99077.00
2022-09-18T04:48:01.839Z,99075.00
2022-09-18T04:49:01.873Z,99076.00
2022-09-18T04:50:01.885Z,99078.00
2022-09-18T04:51:01.891Z,99074.00
2022-09-18T04:52:01.917Z,99075.00
2022-09-18T04:53:01.910Z,99075.00
2022-09-18T04:54:01.960Z,99073.00
2022-09-18T04:55:02.064Z,99071.00
2022-09-18T04:56:01.969Z,99067.00
2022-09-18T04:57:02.022Z,99073.00
2022-09-18T04:58:01.985Z,99071.00
2022-09-18T04:59:02.011Z,99067.00
2022-09-18T05:00:02.028Z,99069.00
2022-09-18T05:01:02.115Z,99069.00
2022-09-18T05:02:02.171Z,99071.00
2022-09-18T05:03:02.095Z,99072.00
2022-09-18T05:04:02.087Z,99071.00
2022-09-18T05:05:02.102Z,99071.00
2022-09-18T05:06:02.138Z,99074.00
2022-09-18T05:07:02.166Z,99075.00
2022-09-18T05:08:02.179Z,99069.00
2022-09-18T05:09:02.315Z,99070.00
2022-09-18T05:10:02.198Z,99074.00
2022-09-18T05:11:02.351Z,99076.00
2022-09-18T05:12:02.225Z,99073.00
2022-09-18T05:13:02.237Z,99073.00
2022-09-18T05:14:02.258Z,99077.00
2022-09-18T05:15:02.292Z,99072.00
2022-09-18T05:16:02.392Z,99074.00
2022-09-18T05:17:02.306Z,99075.00
2022-09-18T05:18:02.318Z,99078.00
2022-09-18T05:19:02.344Z,99078.00
2022-09-18T05:20:02.330Z,99074.00
2022-09-18T05:21:02.346Z,99081.00
2022-09-18T05:22:02.372Z,99080.00
2022-09-18T05:23:02.391Z,99077.00
2022-09-18T05:24:02.519Z,99079.00
2022-09-18T05:25:02.420Z,99081.00
2022-09-18T05:26:02.430Z,99080.00
2022-09-18T05:27:02.566Z,99080.00
2022-09-18T05:28:02.481Z,99082.00
2022-09-18T05:29:02.497Z,99083.00
2022-09-18T05:30:02.460Z,99082.00
2022-09-18T05:31:02.584Z,99078.00
2022-09-18T05:32:02.474Z,99075.00
2022-09-18T05:33:02.501Z,99076.00
2022-09-18T05:34:02.508Z,99077.00
2022-09-18T05:35:02.539Z,99074.00
2022-09-18T05:36:02.575Z,99075.00
2022-09-18T05:37:02.554Z,99074.00
2022-09-18T05:38:02.582Z,99077.00
2022-09-18T05:39:02.771Z,99084.00
2022-09-18T05:40:02.663Z,99078.00
2022-09-18T05:41:02.624Z,99086.00
2022-09-18T05:42:02.607Z,99087.00
2022-09-18T05:43:02.758Z,99087.00
2022-09-18T05:44:02.611Z,99083.00
2022-09-18T05:45:02.628Z,99093.00
2022-09-18T05:46:02.630Z,99092.00
2022-09-18T05:47:02.743Z,99091.00
2022-09-18T05:48:02.653Z,99088.00
2022-09-18T05:49:02.669Z,99089.00
2022-09-18T05:50:02.698Z,99094.00
2022-09-18T05:51:02.731Z,99090.00
2022-09-18T05:52:02.713Z,99091.00
2022-09-18T05:53:02.763Z,99081.00
2022-09-18T05:54:02.835Z,99086.00
2022-09-18T05:55:02.726Z,99087.00
2022-09-18T05:56:02.761Z,99087.00
2022-09-18T05:57:02.778Z,99086.00
2022-09-18T05:58:02.794Z,99085.00
2022-09-18T05:59:02.929Z,99092.00
2022-09-18T06:00:02.842Z,99083.00
2022-09-18T06:01:02.864Z,99083.00
2022-09-18T06:02:02.956Z,99072.00
2022-09-18T06:03:02.934Z,99079.00
2022-09-18T06:04:02.914Z,99082.00
2022-09-18T06:05:02.931Z,99078.00
2022-09-18T06:06:02.967Z,99077.00
2022-09-18T06:07:02.987Z,99078.00
2022-09-18T06:08:02.973Z,99079.00
2022-09-18T06:09:03.054Z,99082.00
2022-09-18T06:10:03.009Z,99082.00
2022-09-18T06:11:03.027Z,99090.00
2022-09-18T06:12:03.027Z,99084.00
2022-09-18T06:13:03.062Z,99081.00
2022-09-18T06:14:03.073Z,99080.00
2022-09-18T06:15:03.152Z,99079.00
2022-09-18T06:16:03.155Z,99074.00
2022-09-18T06:17:03.052Z,99081.00
2022-09-18T06:18:03.083Z,99083.00
2022-09-18T06:19:03.555Z,99087.00
2022-09-18T06:20:03.095Z,99087.00
2022-09-18T06:21:03.127Z,99090.00
2022-09-18T06:22:03.173Z,99086.00
2022-09-18T06:23:03.150Z,99088.00
2022-09-18T06:24:03.285Z,99087.00
2022-09-18T06:25:03.197Z,99086.00
2022-09-18T06:26:03.221Z,99089.00
2022-09-18T06:27:03.258Z,99086.00
2022-09-18T06:28:03.295Z,99082.00
2022-09-18T06:29:03.270Z,99092.00
2022-09-18T06:30:03.288Z,99097.00
2022-09-18T06:31:03.558Z,99096.00
2022-09-18T06:32:03.302Z,99095.00
2022-09-18T06:33:03.297Z,99096.00
2022-09-18T06:34:03.296Z,99096.00
2022-09-18T06:35:03.314Z,99095.00
2022-09-18T06:36:03.320Z,99097.00
2022-09-18T06:37:03.404Z,99097.00
2022-09-18T06:38:03.362Z,99096.00
2022-09-18T06:39:03.565Z,99093.00
2022-09-18T06:40:03.443Z,99100.00
2022-09-18T06:41:03.386Z,99098.00
2022-09-18T06:42:03.390Z,99098.00
2022-09-18T06:43:03.398Z,99100.00
2022-09-18T06:44:03.379Z,99104.00
2022-09-18T06:45:03.401Z,99105.00
2022-09-18T06:46:03.439Z,99099.00
2022-09-18T06:47:03.617Z,99095.00
2022-09-18T06:48:03.435Z,99097.00
2022-09-18T06:49:03.457Z,99097.00
2022-09-18T06:50:03.466Z,99099.00
2022-09-18T06:51:03.499Z,99101.00
2022-09-18T06:52:03.491Z,99095.00
2022-09-18T06:53:03.472Z,99098.00
2022-09-18T06:54:03.594Z,99098.00
2022-09-18T06:55:03.489Z,99095.00
2022-09-18T06:56:03.516Z,99100.00
2022-09-18T06:57:03.540Z,99094.00
2022-09-18T06:58:03.557Z,99099.00
2022-09-18T06:59:03.572Z,99100.00
2022-09-18T07:00:05.034Z,99096.00
2022-09-18T07:01:03.655Z,99100.00
2022-09-18T07:02:03.681Z,99095.00
2022-09-18T07:03:03.745Z,99104.00
2022-09-18T07:04:03.654Z,99107.00
2022-09-18T07:05:03.675Z,99104.00
2022-09-18T07:06:03.691Z,99107.00
2022-09-18T07:07:03.717Z,99106.00
2022-09-18T07:08:03.738Z,99106.00
2022-09-18T07:09:03.779Z,99106.00
2022-09-18T07:10:08.831Z,99112.00
2022-09-18T07:11:03.774Z,99106.00
2022-09-18T07:12:03.803Z,99111.00
2022-09-18T07:13:03.836Z,99111.00
2022-09-18T07:14:03.858Z,99107.00
2022-09-18T07:15:03.869Z,99112.00
2022-09-18T07:16:03.923Z,99114.00
2022-09-18T07:17:03.861Z,99108.00
2022-09-18T07:18:03.892Z,99110.00
2022-09-18T07:19:04.034Z,99109.00
2022-09-18T07:20:03.937Z,99109.00
2022-09-18T07:21:03.960Z,99107.00
2022-09-18T07:22:03.971Z,99112.00
2022-09-18T07:23:03.984Z,99110.00
2022-09-18T07:24:04.136Z,99114.00
2022-09-18T07:25:04.026Z,99110.00
2022-09-18T07:26:04.054Z,99108.00
2022-09-18T07:27:04.086Z,99106.00
2022-09-18T07:28:04.088Z,99107.00
2022-09-18T07:29:08.038Z,99107.00
2022-09-18T07:30:04.103Z,99107.00
2022-09-18T07:31:04.284Z,99108.00
2022-09-18T07:32:04.143Z,99109.00
2022-09-18T07:33:04.178Z,99110.00
2022-09-18T07:34:04.205Z,99114.00
2022-09-18T07:35:04.351Z,99113.00
2022-09-18T07:36:04.252Z,99109.00
2022-09-18T07:37:04.263Z,99108.00
2022-09-18T07:38:04.271Z,99106.00
2022-09-18T07:39:04.321Z,99108.00
2022-09-18T07:40:04.344Z,99113.00
2022-09-18T07:41:04.327Z,99109.00
2022-09-18T07:42:08.742Z,99109.00
2022-09-18T07:43:04.563Z,99107.00
2022-09-18T07:44:04.367Z,99120.00
2022-09-18T07:45:04.395Z,99121.00
2022-09-18T07:46:04.413Z,99127.00
2022-09-18T07:47:04.434Z,99123.00
2022-09-18T07:48:04.455Z,99124.00
2022-09-18T07:49:06.483Z,99113.00
2022-09-18T07:50:04.505Z,99118.00
2022-09-18T07:51:04.645Z,99118.00
2022-09-18T07:52:04.565Z,99124.00
2022-09-18T07:53:04.574Z,99123.00
2022-09-18T07:54:04.641Z,99120.00
2022-09-18T07:55:04.610Z,99123.00
2022-09-18T07:56:04.606Z,99122.00
2022-09-18T07:57:04.637Z,99118.00
2022-09-18T07:58:04.651Z,99120.00
2022-09-18T07:59:04.663Z,99115.00
2022-09-18T08:00:04.694Z,99120.00
2022-09-18T08:01:04.685Z,99121.00
2022-09-18T08:02:04.917Z,99122.00
2022-09-18T08:03:04.858Z,99117.00
2022-09-18T08:04:04.734Z,99112.00
2022-09-18T08:05:04.755Z,99114.00
2022-09-18T08:06:04.785Z,99116.00
2022-09-18T08:07:04.907Z,99110.00
2022-09-18T08:08:04.768Z,99118.00
2022-09-18T08:09:04.913Z,99116.00
2022-09-18T08:10:04.797Z,99119.00
2022-09-18T08:11:04.819Z,99119.00
2022-09-18T08:12:04.870Z,99117.00
2022-09-18T08:13:04.834Z,99115.00
2022-09-18T08:14:04.872Z,99117.00
2022-09-18T08:15:04.921Z,99119.00
2022-09-18T08:16:05.004Z,99122.00
2022-09-18T08:17:04.896Z,99124.00
2022-09-18T08:18:04.928Z,99124.00
2022-09-18T08:19:04.904Z,99123.00
2022-09-18T08:20:04.917Z,99121.00
2022-09-18T08:21:09.838Z,99127.00
2022-09-18T08:22:04.953Z,99119.00
2022-09-18T08:23:05.104Z,99120.00
2022-09-18T08:24:04.989Z,99119.00
2022-09-18T08:25:04.976Z,99123.00
2022-09-18T08:26:05.004Z,99123.00
2022-09-18T08:27:05.016Z,99121.00
2022-09-18T08:28:05.049Z,99127.00
2022-09-18T08:29:05.009Z,99124.00
2022-09-18T08:30:05.034Z,99123.00
2022-09-18T08:31:05.150Z,99123.00
2022-09-18T08:32:09.122Z,99126.00
2022-09-18T08:33:05.084Z,99121.00
2022-09-18T08:34:05.112Z,99119.00
2022-09-18T08:35:05.114Z,99123.00
2022-09-18T08:36:05.142Z,99127.00
2022-09-18T08:37:05.172Z,99122.00
2022-09-18T08:38:05.194Z,99128.00
2022-09-18T08:39:05.322Z,99122.00
2022-09-18T08:40:05.416Z,99125.00
2022-09-18T08:41:05.177Z,99126.00
2022-09-18T08:42:05.196Z,99128.00
2022-09-18T08:43:05.195Z,99124.00
2022-09-18T08:44:05.229Z,99128.00
2022-09-18T08:45:05.246Z,99133.00
2022-09-18T08:46:05.258Z,99128.00
2022-09-18T08:47:05.413Z,99129.00
2022-09-18T08:48:05.336Z,99125.00
2022-09-18T08:49:05.319Z,99126.00
2022-09-18T08:50:05.328Z,99127.00
2022-09-18T08:51:05.324Z,99125.00
2022-09-18T08:52:05.351Z,99122.00
2022-09-18T08:53:05.372Z,99129.00
2022-09-18T08:54:05.406Z,99127.00
2022-09-18T08:55:05.510Z,99121.00
2022-09-18T08:56:05.423Z,99118.00
2022-09-18T08:57:05.433Z,99120.00
2022-09-18T08:58:05.466Z,99124.00
2022-09-18T08:59:05.449Z,99126.00
2022-09-18T09:00:05.480Z,99125.00
2022-09-18T09:01:05.586Z,99119.00
2022-09-18T09:02:05.551Z,99120.00
2022-09-18T09:03:05.522Z,99126.00
2022-09-18T09:04:05.519Z,99124.00
2022-09-18T09:05:05.568Z,99120.00
2022-09-18T09:06:05.541Z,99121.00
2022-09-18T09:07:05.556Z,99120.00
2022-09-18T09:08:05.569Z,99120.00
2022-09-18T09:09:08.561Z,99120.00
2022-09-18T09:10:05.618Z,99118.00
2022-09-18T09:11:05.745Z,99118.00
2022-09-18T09:12:05.661Z,99118.00
2022-09-18T09:13:05.687Z,99113.00
2022-09-18T09:14:05.684Z,99117.00
2022-09-18T09:15:05.728Z,99115.00
2022-09-18T09:16:05.762Z,99113.00
2022-09-18T09:17:05.728Z,99118.00
2022-09-18T09:18:05.741Z,99114.00
2022-09-18T09:19:05.760Z,99115.00
2022-09-18T09:20:05.829Z,99116.00
2022-09-18T09:21:08.737Z,99113.00
2022-09-18T09:22:05.822Z,99111.00
2022-09-18T09:23:05.848Z,99115.00
2022-09-18T09:24:05.872Z,99115.00
2022-09-18T09:25:05.917Z,99111.00
2022-09-18T09:26:05.888Z,99113.00
2022-09-18T09:27:06.036Z,99107.00
2022-09-18T09:28:05.898Z,99105.00
2022-09-18T09:29:05.894Z,99096.00
2022-09-18T09:30:05.925Z,99104.00
2022-09-18T09:31:06.019Z,99106.00
2022-09-18T09:32:05.949Z,99106.00
2022-09-18T09:33:05.967Z,99106.00
2022-09-18T09:34:06.000Z,99103.00
2022-09-18T09:35:06.006Z,99102.00
2022-09-18T09:36:06.009Z,99112.00
2022-09-18T09:37:06.008Z,99105.00
2022-09-18T09:38:06.036Z,99109.00
2022-09-18T09:39:06.056Z,99101.00
2022-09-18T09:40:06.112Z,99103.00
2022-09-18T09:41:06.097Z,99106.00
2022-09-18T09:42:06.115Z,99114.00
2022-09-18T09:43:06.263Z,99107.00
2022-09-18T09:44:06.126Z,99112.00
2022-09-18T09:45:06.112Z,99101.00
2022-09-18T09:46:06.100Z,99106.00
2022-09-18T09:47:06.233Z,99106.00
2022-09-18T09:48:06.133Z,99110.00
2022-09-18T09:49:06.158Z,99101.00
2022-09-18T09:50:06.183Z,99109.00
2022-09-18T09:51:06.200Z,99104.00
2022-09-18T09:52:09.387Z,99108.00
2022-09-18T09:53:06.250Z,99100.00
2022-09-18T09:54:06.257Z,99105.00
2022-09-18T09:55:06.319Z,99101.00
2022-09-18T09:56:06.284Z,99103.00
2022-09-18T09:57:06.295Z,99102.00
2022-09-18T09:58:06.307Z,99106.00
2022-09-18T09:59:08.696Z,99105.00
2022-09-18T10:00:06.584Z,99102.00
2022-09-18T10:01:06.390Z,99102.00
2022-09-18T10:02:06.411Z,99110.00
2022-09-18T10:03:06.388Z,99108.00
2022-09-18T10:04:06.421Z,99108.00
2022-09-18T10:05:06.440Z,99108.00
2022-09-18T10:06:06.433Z,99102.00
2022-09-18T10:07:06.465Z,99099.00
2022-09-18T10:08:06.449Z,99103.00
2022-09-18T10:09:06.508Z,99102.00
2022-09-18T10:10:06.473Z,99102.00
2022-09-18T10:11:06.488Z,99106.00
2022-09-18T10:12:06.604Z,99100.00
2022-09-18T10:13:06.509Z,99104.00
2022-09-18T10:14:06.529Z,99106.00
2022-09-18T10:15:06.553Z,99112.00
2022-09-18T10:16:06.589Z,99104.00
2022-09-18T10:17:06.559Z,99103.00
2022-09-18T10:18:06.584Z,99107.00
2022-09-18T10:19:06.604Z,99100.00
2022-09-18T10:20:06.641Z,99101.00
2022-09-18T10:21:06.669Z,99098.00
2022-09-18T10:22:06.708Z,99096.00
2022-09-18T10:23:06.720Z,99099.00
2022-09-18T10:24:06.726Z,99089.00
2022-09-18T10:25:06.750Z,99091.00
2022-09-18T10:26:06.783Z,99088.00
2022-09-18T10:27:06.808Z,99086.00
2022-09-18T10:28:06.840Z,99082.00
2022-09-18T10:29:06.857Z,99080.00
2022-09-18T10:30:06.849Z,99080.00
2022-09-18T10:31:07.019Z,99084.00
2022-09-18T10:32:07.069Z,99084.00
2022-09-18T10:33:06.864Z,99085.00
2022-09-18T10:34:06.885Z,99084.00
2022-09-18T10:35:06.902Z,99083.00
2022-09-18T10:36:06.910Z,99086.00
2022-09-18T10:37:06.935Z,99084.00
2022-09-18T10:38:06.960Z,99088.00
2022-09-18T10:39:06.938Z,99090.00
2022-09-18T10:40:07.019Z,99083.00
2022-09-18T10:41:06.987Z,99084.00
2022-09-18T10:42:07.141Z,99082.00
2022-09-18T10:43:07.012Z,99087.00
2022-09-18T10:44:07.065Z,99081.00
2022-09-18T10:45:07.065Z,99082.00
2022-09-18T10:46:07.061Z,99083.00
2022-09-18T10:47:07.219Z,99077.00
2022-09-18T10:48:07.081Z,99083.00
2022-09-18T10:49:07.106Z,99081.00
2022-09-18T10:50:07.119Z,99084.00
2022-09-18T10:51:07.156Z,99081.00
2022-09-18T10:52:07.134Z,99078.00
2022-09-18T10:53:07.163Z,99080.00
2022-09-18T10:54:07.174Z,99081.00
2022-09-18T10:55:07.151Z,99075.00
2022-09-18T10:56:07.174Z,99074.00
2022-09-18T10:57:07.206Z,99072.00
2022-09-18T10:58:07.235Z,99076.00
2022-09-18T10:59:07.257Z,99070.00
2022-09-18T11:00:07.284Z,99072.00
2022-09-18T11:01:07.419Z,99066.00
2022-09-18T11:02:07.445Z,99067.00
2022-09-18T11:03:07.478Z,99067.00
2022-09-18T11:04:07.359Z,99069.00
2022-09-18T11:05:07.375Z,99066.00
2022-09-18T11:06:07.384Z,99069.00
2022-09-18T11:07:07.530Z,99060.00
2022-09-18T11:08:07.435Z,99061.00
2022-09-18T11:09:07.478Z,99063.00
2022-09-18T11:10:07.454Z,99067.00
2022-09-18T11:11:07.480Z,99055.00
2022-09-18T11:12:07.512Z,99054.00
2022-09-18T11:13:07.527Z,99050.00
2022-09-18T11:14:07.559Z,99051.00
2022-09-18T11:15:07.591Z,99050.00
2022-09-18T11:16:07.616Z,99049.00
2022-09-18T11:17:07.633Z,99050.00
2022-09-18T11:18:07.657Z,99046.00
2022-09-18T11:19:07.896Z,99039.00
2022-09-18T11:20:07.710Z,99039.00
2022-09-18T11:21:07.747Z,99042.00
2022-09-18T11:22:07.745Z,99036.00
2022-09-18T11:23:07.917Z,99042.00
2022-09-18T11:24:07.778Z,99034.00
2022-09-18T11:25:07.799Z,99036.00
2022-09-18T11:26:07.770Z,99037.00
2022-09-18T11:27:07.776Z,99037.00
2022-09-18T11:28:07.796Z,99038.00
2022-09-18T11:29:07.825Z,99039.00
2022-09-18T11:30:07.840Z,99030.00
2022-09-18T11:31:07.902Z,99031.00
2022-09-18T11:32:07.829Z,99034.00
2022-09-18T11:33:07.837Z,99035.00
2022-09-18T11:34:07.839Z,99025.00
2022-09-18T11:35:07.960Z,99037.00
2022-09-18T11:36:07.865Z,99035.00
2022-09-18T11:37:07.894Z,99031.00
2022-09-18T11:38:07.940Z,99030.00
2022-09-18T11:39:07.936Z,99033.00
2022-09-18T11:40:08.076Z,99030.00
2022-09-18T11:41:07.963Z,99025.00
2022-09-18T11:42:07.973Z,99032.00
2022-09-18T11:43:07.999Z,99019.00
2022-09-18T11:44:08.041Z,99025.00
2022-09-18T11:45:08.013Z,99025.00